createdAt,value
2019-02-28T00:00:37.264Z,10.13
2019-02-28T00:03:06.936Z,8.30
2019-02-28T00:05:37.952Z,8.50
2019-02-28T00:08:05.777Z,8.20
2019-02-28T00:10:34.318Z,9.47
2019-02-28T00:13:02.859Z,8.93
2019-02-28T00:15:31.433Z,9.97
2019-02-28T00:17:59.721Z,10.03
2019-02-28T00:20:29.139Z,10.50
2019-02-28T00:22:57.908Z,9.90
2019-02-28T00:25:26.486Z,9.40
2019-02-28T00:27:55.029Z,8.90
2019-02-28T00:30:23.672Z,8.47
2019-02-28T00:32:52.216Z,9.03
2019-02-28T00:35:20.793Z,8.37
2019-02-28T00:37:49.337Z,8.00
2019-02-28T00:40:18.028Z,8.60
2019-02-28T00:42:48.066Z,8.17
2019-02-28T00:45:16.881Z,8.30
2019-02-28T00:47:47.511Z,7.73
2019-02-28T00:50:15.704Z,7.83
2019-02-28T00:52:44.244Z,8.00
2019-02-28T00:55:15.243Z,8.17
2019-02-28T00:57:44.072Z,7.97
2019-02-28T01:00:13.856Z,8.07
2019-02-28T01:02:42.135Z,8.57
2019-02-28T01:05:10.453Z,8.83
2019-02-28T01:07:38.736Z,8.33
2019-02-28T01:10:10.249Z,9.47
2019-02-28T01:12:38.496Z,8.87
2019-02-28T01:15:13.189Z,8.57
2019-02-28T01:17:41.824Z,8.57
2019-02-28T01:20:15.005Z,8.17
2019-02-28T01:22:41.089Z,8.47
2019-02-28T01:25:10.579Z,8.83
2019-02-28T01:27:38.825Z,8.97
2019-02-28T01:30:08.608Z,9.90
2019-02-28T01:32:37.453Z,8.87
2019-02-28T01:35:07.593Z,9.30
2019-02-28T01:37:35.876Z,8.83
2019-02-28T01:40:06.956Z,8.83
2019-02-28T01:42:35.528Z,9.37
2019-02-28T01:45:07.032Z,9.50
2019-02-28T01:47:35.624Z,10.17
2019-02-28T01:50:05.799Z,10.13
2019-02-28T01:52:34.377Z,9.60
2019-02-28T01:55:02.587Z,9.43
2019-02-28T01:57:31.161Z,9.60
2019-02-28T01:59:59.385Z,10.00
2019-02-28T02:02:27.956Z,10.27
2019-02-28T02:04:56.181Z,10.77
2019-02-28T02:07:24.592Z,11.00
2019-02-28T02:09:53.362Z,10.03
2019-02-28T02:12:21.928Z,10.23
2019-02-28T02:14:50.149Z,10.30
2019-02-28T02:17:18.720Z,10.03
2019-02-28T02:19:49.348Z,9.60
2019-02-28T02:22:17.488Z,10.20
2019-02-28T02:24:46.025Z,10.87
2019-02-28T02:27:16.328Z,9.77
2019-02-28T02:29:44.460Z,9.47
2019-02-28T02:32:12.709Z,8.33
2019-02-28T02:34:40.924Z,9.63
2019-02-28T02:37:09.498Z,8.93
2019-02-28T02:39:38.037Z,9.67
2019-02-28T02:42:09.963Z,9.77
2019-02-28T02:44:36.472Z,10.20
2019-02-28T02:47:05.112Z,9.77
2019-02-28T02:49:33.329Z,10.90
2019-02-28T02:52:01.582Z,10.67
2019-02-28T02:54:29.793Z,9.40
2019-02-28T02:56:58.360Z,9.03
2019-02-28T02:59:26.577Z,9.17
2019-02-28T03:01:56.147Z,9.50
2019-02-28T03:04:24.696Z,8.63
2019-02-28T03:06:53.272Z,9.53
2019-02-28T03:09:21.493Z,10.13
2019-02-28T03:11:49.732Z,9.90
2019-02-28T03:14:18.288Z,9.97
2019-02-28T03:16:46.857Z,8.87
2019-02-28T03:19:15.389Z,9.80
2019-02-28T03:21:50.883Z,8.00
2019-02-28T03:24:15.135Z,9.23
2019-02-28T03:26:43.728Z,9.70
2019-02-28T03:29:11.941Z,9.00
2019-02-28T03:31:40.185Z,8.77
2019-02-28T03:34:13.060Z,8.60
2019-02-28T03:36:38.950Z,9.00
2019-02-28T03:39:07.336Z,8.90
2019-02-28T03:41:35.911Z,8.80
2019-02-28T03:44:04.196Z,9.63
2019-02-28T03:46:32.441Z,9.20
2019-02-28T03:49:00.658Z,8.33
2019-02-28T03:51:29.641Z,7.60
2019-02-28T03:53:58.416Z,9.13
2019-02-28T03:56:27.028Z,10.13
2019-02-28T03:58:55.273Z,8.97
2019-02-28T04:01:23.492Z,9.03
2019-02-28T04:03:51.734Z,8.97
2019-02-28T04:06:19.955Z,9.07
2019-02-28T04:08:48.516Z,10.03
2019-02-28T04:11:17.057Z,8.97
2019-02-28T04:13:45.305Z,9.53
2019-02-28T04:16:13.793Z,9.83
2019-02-28T04:18:46.125Z,10.03
2019-02-28T04:21:12.282Z,8.47
2019-02-28T04:23:41.081Z,8.70
2019-02-28T04:26:09.292Z,9.60
2019-02-28T04:28:37.868Z,9.47
2019-02-28T04:31:06.086Z,9.07
2019-02-28T04:33:39.027Z,9.90
2019-02-28T04:36:04.196Z,8.90
2019-02-28T04:38:32.436Z,9.40
2019-02-28T04:41:00.652Z,8.97
2019-02-28T04:43:29.229Z,9.23
2019-02-28T04:45:57.893Z,8.77
2019-02-28T04:48:26.790Z,8.47
2019-02-28T04:50:55.360Z,8.73
2019-02-28T04:53:23.604Z,8.70
2019-02-28T04:55:52.144Z,9.17
2019-02-28T04:58:22.372Z,9.67
2019-02-28T05:00:50.584Z,8.87
2019-02-28T05:03:19.229Z,8.67
2019-02-28T05:05:47.673Z,9.30
2019-02-28T05:08:15.991Z,9.73
2019-02-28T05:10:44.536Z,9.57
2019-02-28T05:13:14.368Z,9.50
2019-02-28T05:15:42.977Z,9.53
2019-02-28T05:18:11.220Z,9.47
2019-02-28T05:20:44.839Z,9.03
2019-02-28T05:23:09.657Z,10.67
2019-02-28T05:25:38.201Z,12.93
2019-02-28T05:28:07.446Z,13.33
2019-02-28T05:30:36.188Z,13.23
2019-02-28T05:33:06.685Z,10.77
2019-02-28T05:35:34.444Z,15.33
2019-02-28T05:38:02.691Z,13.77
2019-02-28T05:40:30.908Z,15.03
2019-02-28T05:42:59.230Z,13.70
2019-02-28T05:45:27.577Z,11.93
2019-02-28T05:47:55.834Z,10.53
2019-02-28T05:50:24.047Z,10.40
2019-02-28T05:52:52.295Z,10.10
2019-02-28T05:55:24.479Z,9.13
2019-02-28T05:57:50.404Z,9.13
2019-02-28T06:00:20.267Z,10.03
2019-02-28T06:02:48.512Z,11.40
2019-02-28T06:05:16.728Z,10.60
2019-02-28T06:07:44.977Z,10.73
2019-02-28T06:10:14.695Z,10.23
2019-02-28T06:12:44.823Z,9.50
2019-02-28T06:15:13.864Z,10.13
2019-02-28T06:17:42.077Z,9.83
2019-02-28T06:20:11.090Z,9.67
2019-02-28T06:22:39.375Z,8.20
2019-02-28T06:25:08.494Z,8.90
2019-02-28T06:27:41.621Z,8.40
2019-02-28T06:30:08.839Z,8.50
2019-02-28T06:32:37.761Z,9.23
2019-02-28T06:35:06.393Z,8.43
2019-02-28T06:37:35.409Z,9.30
2019-02-28T06:40:06.024Z,7.57
2019-02-28T06:42:34.233Z,7.50
2019-02-28T06:45:03.687Z,9.13
2019-02-28T06:47:31.997Z,9.30
2019-02-28T06:50:00.254Z,6.37
2019-02-28T06:52:28.448Z,8.70
2019-02-28T06:54:56.694Z,9.77
2019-02-28T06:57:26.908Z,8.67
2019-02-28T06:59:54.800Z,9.80
2019-02-28T07:02:23.012Z,8.90
2019-02-28T07:04:51.257Z,8.83
2019-02-28T07:07:19.472Z,9.20
2019-02-28T07:09:47.727Z,8.80
2019-02-28T07:12:15.929Z,8.20
2019-02-28T07:14:44.477Z,9.00
2019-02-28T07:17:14.037Z,7.60
2019-02-28T07:19:42.275Z,8.83
2019-02-28T07:22:10.495Z,9.20
2019-02-28T07:24:38.732Z,9.17
2019-02-28T07:27:06.946Z,9.10
2019-02-28T07:29:35.188Z,7.87
2019-02-28T07:32:03.476Z,11.13
2019-02-28T07:34:31.735Z,10.70
2019-02-28T07:36:59.942Z,9.37
2019-02-28T07:39:28.199Z,10.70
2019-02-28T07:41:58.927Z,10.73
2019-02-28T07:44:26.305Z,10.90
2019-02-28T07:46:54.520Z,6.13
2019-02-28T07:49:22.785Z,7.93
2019-02-28T07:51:51.073Z,10.83
2019-02-28T07:54:20.495Z,8.70
2019-02-28T07:56:48.864Z,7.20
2019-02-28T07:59:17.128Z,8.90
2019-02-28T08:01:45.658Z,10.33
2019-02-28T08:04:18.127Z,11.47
2019-02-28T08:06:44.424Z,11.27
2019-02-28T08:09:18.825Z,9.80
2019-02-28T08:11:47.377Z,10.90
2019-02-28T08:14:15.625Z,9.23
2019-02-28T08:16:44.172Z,9.57
2019-02-28T08:19:12.813Z,10.73
2019-02-28T08:21:46.941Z,10.23
2019-02-28T08:24:11.565Z,9.53
2019-02-28T08:26:40.140Z,10.40
2019-02-28T08:29:11.607Z,10.53
2019-02-28T08:31:38.712Z,9.53
2019-02-28T08:34:07.260Z,10.90
2019-02-28T08:36:35.901Z,10.03
2019-02-28T08:39:08.851Z,8.00
2019-02-28T08:41:38.224Z,10.03
2019-02-28T08:44:06.761Z,9.77
2019-02-28T08:46:35.008Z,11.70
2019-02-28T08:49:06.481Z,10.63
2019-02-28T08:51:33.777Z,11.43
2019-02-28T08:54:02.322Z,11.00
2019-02-28T08:56:32.250Z,10.73
2019-02-28T08:59:00.909Z,10.90
2019-02-28T09:01:29.481Z,6.90
2019-02-28T09:03:59.843Z,10.57
2019-02-28T09:06:28.244Z,11.60
2019-02-28T09:08:56.641Z,9.57
2019-02-28T09:11:25.228Z,8.17
2019-02-28T09:13:53.764Z,8.40
2019-02-28T09:16:22.408Z,11.73
2019-02-28T09:18:50.956Z,11.37
2019-02-28T09:21:19.521Z,6.63
2019-02-28T09:23:48.208Z,10.70
2019-02-28T09:26:16.522Z,8.93
2019-02-28T09:28:47.566Z,11.57
2019-02-28T09:31:14.963Z,10.63
2019-02-28T09:33:43.509Z,11.17
2019-02-28T09:36:12.081Z,10.17
2019-02-28T09:38:42.239Z,10.57
2019-02-28T09:41:10.837Z,7.60
2019-02-28T09:43:39.389Z,7.70
2019-02-28T09:46:09.110Z,10.40
2019-02-28T09:48:38.020Z,11.07
2019-02-28T09:51:06.717Z,11.10
2019-02-28T09:53:35.265Z,11.10
2019-02-28T09:56:09.121Z,9.30
2019-02-28T09:58:34.174Z,12.07
2019-02-28T10:01:02.721Z,10.87
2019-02-28T10:03:31.300Z,9.57
2019-02-28T10:05:59.844Z,10.63
2019-02-28T10:08:28.420Z,11.23
2019-02-28T10:10:57.113Z,10.50
2019-02-28T10:13:25.693Z,7.13
2019-02-28T10:15:54.241Z,7.60
2019-02-28T10:18:22.828Z,7.30
2019-02-28T10:20:51.050Z,9.83
2019-02-28T10:23:21.437Z,6.40
2019-02-28T10:25:49.891Z,5.13
2019-02-28T10:28:18.533Z,8.33
2019-02-28T10:30:49.912Z,7.47
2019-02-28T10:33:18.081Z,9.00
2019-02-28T10:35:46.404Z,10.93
2019-02-28T10:38:15.051Z,11.33
2019-02-28T10:40:43.601Z,8.43
2019-02-28T10:43:15.626Z,6.83
2019-02-28T10:45:42.896Z,8.13
2019-02-28T10:48:11.516Z,11.70
2019-02-28T10:50:40.141Z,10.90
2019-02-28T10:53:08.790Z,11.47
2019-02-28T10:55:37.076Z,9.73
2019-02-28T10:58:05.852Z,8.57
2019-02-28T11:00:38.187Z,9.50
2019-02-28T11:03:06.995Z,11.80
2019-02-28T11:05:37.248Z,10.47
2019-02-28T11:08:09.723Z,11.57
2019-02-28T11:10:39.200Z,7.60
2019-02-28T11:13:10.853Z,7.53
2019-02-28T11:15:39.540Z,13.10
2019-02-28T11:18:09.718Z,6.97
2019-02-28T11:20:39.517Z,12.77
2019-02-28T11:23:11.513Z,10.87
2019-02-28T11:25:38.924Z,10.80
2019-02-28T11:28:07.240Z,8.00
2019-02-28T11:30:36.266Z,10.00
2019-02-28T11:33:05.548Z,9.43
2019-02-28T11:35:34.234Z,13.20
2019-02-28T11:38:04.835Z,13.20
2019-02-28T11:40:33.516Z,12.60
2019-02-28T11:43:03.955Z,14.10
2019-02-28T11:45:41.484Z,11.80
2019-02-28T11:48:25.425Z,12.73
2019-02-28T11:50:54.144Z,13.63
2019-02-28T11:53:22.768Z,7.33
2019-02-28T11:55:53.223Z,9.63
2019-02-28T11:58:21.516Z,13.53
2019-02-28T12:00:50.335Z,11.20
2019-02-28T12:03:18.953Z,13.20
2019-02-28T12:05:50.135Z,13.80
2019-02-28T12:08:17.393Z,9.23
2019-02-28T12:10:46.038Z,8.03
2019-02-28T12:13:16.540Z,8.17
2019-02-28T12:15:44.615Z,10.77
2019-02-28T12:18:13.232Z,8.63
2019-02-28T12:20:41.880Z,13.00
2019-02-28T12:23:10.428Z,12.30
2019-02-28T12:25:39.525Z,10.53
2019-02-28T12:28:09.414Z,7.93
2019-02-28T12:30:37.792Z,8.33
2019-02-28T12:33:06.408Z,5.20
2019-02-28T12:35:39.919Z,6.83
2019-02-28T12:38:05.690Z,7.97
2019-02-28T12:40:36.202Z,6.77
2019-02-28T12:43:08.672Z,5.73
2019-02-28T12:45:44.828Z,8.37
2019-02-28T12:48:13.787Z,6.07
2019-02-28T12:50:43.196Z,4.97
2019-02-28T12:53:11.881Z,6.27
2019-02-28T12:55:40.465Z,6.83
2019-02-28T12:58:09.000Z,8.63
2019-02-28T13:00:40.658Z,5.90
2019-02-28T13:03:09.830Z,4.20
2019-02-28T13:05:38.106Z,6.23
2019-02-28T13:08:07.067Z,5.07
2019-02-28T13:10:36.105Z,5.93
2019-02-28T13:13:06.979Z,7.20
2019-02-28T13:15:35.510Z,5.77
2019-02-28T13:18:09.030Z,4.83
2019-02-28T13:20:36.901Z,5.90
2019-02-28T13:23:05.652Z,6.00
2019-02-28T13:25:34.165Z,5.30
2019-02-28T13:28:02.805Z,7.57
2019-02-28T13:30:31.424Z,5.57
2019-02-28T13:33:01.729Z,5.00
2019-02-28T13:35:35.204Z,5.13
2019-02-28T13:38:05.836Z,5.77
2019-02-28T13:40:34.516Z,6.03
2019-02-28T13:43:03.093Z,6.77
2019-02-28T13:45:31.846Z,6.63
2019-02-28T13:48:00.497Z,5.73
2019-02-28T13:50:32.813Z,6.77
2019-02-28T13:53:03.482Z,6.47
2019-02-28T13:55:32.202Z,6.40
2019-02-28T13:58:01.149Z,6.00
2019-02-28T14:00:32.848Z,7.10
2019-02-28T14:03:10.261Z,6.80
2019-02-28T14:05:41.277Z,6.50
2019-02-28T14:08:11.385Z,7.87
2019-02-28T14:10:38.852Z,6.20
2019-02-28T14:13:07.565Z,6.93
2019-02-28T14:15:51.378Z,6.97
2019-02-28T14:18:17.981Z,6.17
2019-02-28T14:20:46.592Z,8.30
2019-02-28T14:23:20.148Z,7.50
2019-02-28T14:25:45.437Z,8.10
2019-02-28T14:28:14.008Z,8.50
2019-02-28T14:30:42.556Z,7.73
2019-02-28T14:33:11.204Z,6.10
2019-02-28T14:35:39.427Z,8.80
2019-02-28T14:38:08.139Z,8.70
2019-02-28T14:40:36.753Z,6.43
2019-02-28T14:43:05.393Z,6.90
2019-02-28T14:45:39.311Z,6.60
2019-02-28T14:48:07.171Z,6.43
2019-02-28T14:50:35.852Z,6.40
2019-02-28T14:53:04.564Z,5.40
2019-02-28T14:55:33.646Z,5.87
2019-02-28T14:58:02.396Z,6.60
2019-02-28T15:00:32.360Z,6.30
2019-02-28T15:03:02.873Z,4.83
2019-02-28T15:05:39.823Z,6.63
2019-02-28T15:08:08.468Z,5.93
2019-02-28T15:10:37.148Z,4.67
2019-02-28T15:13:05.993Z,5.37
2019-02-28T15:15:36.094Z,7.63
2019-02-28T15:18:04.536Z,5.77
2019-02-28T15:20:33.374Z,7.03
2019-02-28T15:23:02.177Z,6.67
2019-02-28T15:25:31.248Z,7.17
2019-02-28T15:27:59.489Z,6.40
2019-02-28T15:30:39.061Z,6.13
2019-02-28T15:33:07.710Z,6.63
2019-02-28T15:35:36.321Z,7.77
2019-02-28T15:38:05.634Z,5.40
2019-02-28T15:40:47.081Z,6.87
2019-02-28T15:43:18.155Z,5.90
2019-02-28T15:45:45.853Z,6.30
2019-02-28T15:48:14.428Z,7.40
2019-02-28T15:50:42.976Z,8.13
2019-02-28T15:53:15.081Z,6.93
2019-02-28T15:55:41.957Z,6.83
2019-02-28T15:58:10.741Z,5.83
2019-02-28T16:00:39.354Z,7.30
2019-02-28T16:03:07.917Z,5.47
2019-02-28T16:05:42.792Z,6.97
2019-02-28T16:08:10.482Z,6.80
2019-02-28T16:10:37.164Z,6.17
2019-02-28T16:13:07.181Z,4.80
2019-02-28T16:15:36.068Z,6.87
2019-02-28T16:18:05.282Z,4.50
2019-02-28T16:20:33.500Z,7.70
2019-02-28T16:23:01.784Z,7.83
2019-02-28T16:25:40.331Z,7.57
2019-02-28T16:28:09.316Z,7.93
2019-02-28T16:30:39.408Z,7.43
2019-02-28T16:33:08.018Z,6.63
2019-02-28T16:35:36.660Z,6.87
2019-02-28T16:38:06.539Z,7.07
2019-02-28T16:40:35.584Z,5.97
2019-02-28T16:43:04.262Z,7.20
2019-02-28T16:45:40.373Z,8.50
2019-02-28T16:48:08.273Z,8.50
2019-02-28T16:50:37.192Z,8.73
2019-02-28T16:53:05.469Z,8.57
2019-02-28T16:55:34.185Z,9.57
2019-02-28T16:58:02.733Z,5.33
2019-02-28T17:00:31.045Z,9.00
2019-02-28T17:02:59.594Z,10.67
2019-02-28T17:05:28.430Z,8.70
2019-02-28T17:07:57.363Z,10.97
2019-02-28T17:10:35.717Z,9.80
2019-02-28T17:13:24.749Z,9.67
2019-02-28T17:16:11.583Z,10.53
2019-02-28T17:18:41.408Z,11.80
2019-02-28T17:21:16.725Z,9.43
2019-02-28T17:23:40.316Z,10.93
2019-02-28T17:26:08.980Z,9.47
2019-02-28T17:28:39.262Z,10.80
2019-02-28T17:31:12.491Z,10.60
2019-02-28T17:33:43.283Z,13.47
2019-02-28T17:36:12.416Z,11.40
2019-02-28T17:38:41.177Z,10.07
2019-02-28T17:41:11.164Z,9.97
2019-02-28T17:43:39.981Z,10.80
2019-02-28T17:46:11.632Z,10.67
2019-02-28T17:48:52.395Z,11.10
2019-02-28T17:51:22.769Z,10.93
2019-02-28T17:53:57.090Z,11.10
2019-02-28T17:56:49.812Z,12.57
2019-02-28T17:59:38.999Z,12.87
2019-02-28T18:02:26.265Z,15.23
2019-02-28T18:05:00.583Z,15.80
2019-02-28T18:07:57.779Z,15.40
2019-02-28T18:10:35.589Z,13.67
2019-02-28T18:13:10.181Z,11.57
2019-02-28T18:16:12.079Z,12.73
2019-02-28T18:19:07.104Z,11.20
2019-02-28T18:21:41.957Z,12.17
2019-02-28T18:24:30.004Z,15.37
2019-02-28T18:27:26.117Z,14.57
2019-02-28T18:30:20.391Z,12.17
2019-02-28T18:32:48.961Z,12.80
2019-02-28T18:35:17.513Z,14.07
2019-02-28T18:37:46.161Z,14.83
2019-02-28T18:40:14.780Z,16.07
2019-02-28T18:42:43.507Z,13.90
2019-02-28T18:45:15.734Z,16.30
2019-02-28T18:47:42.793Z,16.20
2019-02-28T18:50:11.413Z,15.63
2019-02-28T18:52:39.992Z,16.10
2019-02-28T18:55:08.689Z,15.03
2019-02-28T18:57:37.264Z,15.67
2019-02-28T19:00:15.694Z,15.53
2019-02-28T19:02:44.282Z,16.23
2019-02-28T19:05:12.590Z,15.17
2019-02-28T19:07:41.216Z,14.17
2019-02-28T19:10:10.333Z,13.47
2019-02-28T19:12:38.980Z,14.30
2019-02-28T19:15:10.740Z,11.90
2019-02-28T19:17:39.327Z,12.43
2019-02-28T19:20:11.891Z,10.20
2019-02-28T19:22:40.468Z,11.20
2019-02-28T19:25:11.056Z,11.37
2019-02-28T19:27:39.665Z,11.53
2019-02-28T19:30:13.708Z,11.30
2019-02-28T19:32:42.256Z,10.77
2019-02-28T19:35:10.905Z,11.00
2019-02-28T19:37:39.452Z,12.70
2019-02-28T19:40:09.244Z,12.40
2019-02-28T19:42:37.865Z,12.20
2019-02-28T19:45:21.101Z,13.70
2019-02-28T19:47:49.721Z,12.77
2019-02-28T19:50:18.293Z,9.63
2019-02-28T19:52:46.912Z,11.13
2019-02-28T19:55:15.162Z,11.33
2019-02-28T19:57:43.380Z,11.97
2019-02-28T20:00:16.071Z,10.93
2019-02-28T20:02:44.684Z,8.83
2019-02-28T20:05:13.804Z,8.47
2019-02-28T20:07:42.425Z,9.93
2019-02-28T20:10:13.714Z,11.77
2019-02-28T20:12:42.336Z,10.60
2019-02-28T20:15:15.940Z,10.47
2019-02-28T20:17:44.227Z,10.53
2019-02-28T20:20:15.885Z,9.00
2019-02-28T20:22:44.169Z,9.47
2019-02-28T20:25:14.081Z,7.87
2019-02-28T20:27:42.689Z,6.10
2019-02-28T20:30:14.474Z,8.87
2019-02-28T20:32:43.022Z,9.90
2019-02-28T20:35:12.033Z,5.27
2019-02-28T20:37:40.653Z,7.40
2019-02-28T20:40:24.396Z,8.60
2019-02-28T20:42:53.083Z,8.17
2019-02-28T20:45:21.726Z,9.17
2019-02-28T20:47:50.270Z,8.80
2019-02-28T20:50:27.758Z,7.17
2019-02-28T20:52:56.307Z,9.47
2019-02-28T20:55:24.620Z,8.77
2019-02-28T20:57:53.236Z,8.27
2019-02-28T21:00:23.522Z,9.07
2019-02-28T21:02:52.215Z,9.07
2019-02-28T21:05:20.924Z,6.80
2019-02-28T21:07:49.136Z,8.10
2019-02-28T21:10:17.785Z,6.90
2019-02-28T21:12:46.337Z,8.93
2019-02-28T21:15:14.576Z,7.20
2019-02-28T21:17:43.125Z,7.67
2019-02-28T21:20:16.313Z,8.33
2019-02-28T21:22:44.596Z,8.17
2019-02-28T21:25:15.035Z,6.87
2019-02-28T21:27:43.560Z,5.43
2019-02-28T21:30:15.190Z,7.43
2019-02-28T21:32:43.827Z,8.43
2019-02-28T21:35:12.519Z,7.63
2019-02-28T21:37:41.155Z,8.53
2019-02-28T21:40:12.709Z,7.80
2019-02-28T21:42:41.350Z,7.60
2019-02-28T21:45:12.977Z,9.80
2019-02-28T21:47:41.553Z,7.53
2019-02-28T21:50:12.441Z,8.83
2019-02-28T21:52:41.085Z,7.97
2019-02-28T21:55:11.864Z,7.47
2019-02-28T21:57:40.581Z,9.93
2019-02-28T22:00:14.724Z,10.27
2019-02-28T22:02:43.300Z,9.30
2019-02-28T22:05:13.290Z,10.60
2019-02-28T22:07:42.005Z,10.40
2019-02-28T22:10:12.852Z,9.17
2019-02-28T22:12:41.500Z,10.90
2019-02-28T22:15:15.744Z,10.27
2019-02-28T22:17:44.325Z,11.27
2019-02-28T22:20:14.409Z,11.97
2019-02-28T22:22:43.057Z,10.67
2019-02-28T22:25:13.648Z,12.47
2019-02-28T22:27:42.368Z,11.93
2019-02-28T22:30:42.200Z,12.10
2019-02-28T22:33:28.903Z,11.83
2019-02-28T22:36:17.179Z,10.17
2019-02-28T22:38:45.752Z,11.93
2019-02-28T22:41:14.301Z,10.93
2019-02-28T22:43:42.880Z,10.30
2019-02-28T22:46:11.421Z,10.67
2019-02-28T22:48:39.992Z,11.27
2019-02-28T22:51:08.537Z,10.37
2019-02-28T22:53:37.109Z,10.13
2019-02-28T22:56:05.652Z,9.07
2019-02-28T22:58:34.228Z,9.30
2019-02-28T23:01:09.266Z,9.90
2019-02-28T23:03:38.041Z,9.00
2019-02-28T23:06:06.630Z,9.63
2019-02-28T23:08:35.268Z,8.73
2019-02-28T23:11:04.055Z,9.13
2019-02-28T23:13:32.769Z,8.67
2019-02-28T23:16:01.302Z,8.93
2019-02-28T23:18:29.876Z,9.50
2019-02-28T23:20:58.408Z,9.03
2019-02-28T23:23:26.651Z,8.70
2019-02-28T23:26:05.837Z,9.10
2019-02-28T23:28:28.163Z,8.20
2019-02-28T23:31:13.232Z,8.80
2019-02-28T23:33:41.805Z,9.40
2019-02-28T23:36:10.349Z,9.00
2019-02-28T23:38:39.808Z,7.97
2019-02-28T23:41:08.347Z,8.03
2019-02-28T23:43:36.659Z,8.17
2019-02-28T23:46:05.269Z,8.00
2019-02-28T23:48:33.836Z,7.00
2019-02-28T23:51:02.379Z,7.60
2019-02-28T23:53:30.962Z,7.47
2019-02-28T23:55:59.497Z,7.70
2019-02-28T23:58:28.036Z,6.83
